createdAt,value
2019-02-20T00:02:00.403Z,45.90
2019-02-20T00:04:30.222Z,45.58
2019-02-20T00:07:00.098Z,46.83
2019-02-20T00:09:29.875Z,44.90
2019-02-20T00:11:59.759Z,46.75
2019-02-20T00:14:29.639Z,47.55
2019-02-20T00:17:00.601Z,41.75
2019-02-20T00:19:30.457Z,51.60
2019-02-20T00:22:00.399Z,43.63
2019-02-20T00:24:30.210Z,41.58
2019-02-20T00:27:00.191Z,42.13
2019-02-20T00:29:30.033Z,45.30
2019-02-20T00:31:59.913Z,37.53
2019-02-20T00:34:29.755Z,41.93
2019-02-20T00:36:59.718Z,37.93
2019-02-20T00:39:29.567Z,43.20
2019-02-20T00:41:59.390Z,38.10
2019-02-20T00:44:33.589Z,43.38
2019-02-20T00:47:05.100Z,45.55
2019-02-20T00:49:36.574Z,42.98
2019-02-20T00:52:11.310Z,38.53
2019-02-20T00:54:41.218Z,47.00
2019-02-20T00:57:11.071Z,44.95
2019-02-20T00:59:40.973Z,43.73
2019-02-20T01:02:10.854Z,40.05
2019-02-20T01:04:40.698Z,43.25
2019-02-20T01:07:10.612Z,35.70
2019-02-20T01:09:40.453Z,36.03
2019-02-20T01:12:10.467Z,43.03
2019-02-20T01:14:40.310Z,44.87
2019-02-20T01:17:11.267Z,48.02
2019-02-20T01:19:42.217Z,48.03
2019-02-20T01:22:12.142Z,44.85
2019-02-20T01:24:41.993Z,44.05
2019-02-20T01:27:11.918Z,35.48
2019-02-20T01:29:41.705Z,32.10
2019-02-20T01:32:11.609Z,31.23
2019-02-20T01:34:41.403Z,31.10
2019-02-20T01:37:11.347Z,30.10
2019-02-20T01:39:41.206Z,31.75
2019-02-20T01:42:11.123Z,44.30
2019-02-20T01:44:40.893Z,41.02
2019-02-20T01:47:10.787Z,41.83
2019-02-20T01:49:40.678Z,41.93
2019-02-20T01:52:10.554Z,46.35
2019-02-20T01:54:40.460Z,45.52
2019-02-20T01:57:10.350Z,41.25
2019-02-20T01:59:40.259Z,53.78
2019-02-20T02:02:10.095Z,47.40
2019-02-20T02:04:39.994Z,43.28
2019-02-20T02:07:09.851Z,38.20
2019-02-20T02:09:39.743Z,35.70
2019-02-20T02:12:09.595Z,35.33
2019-02-20T02:14:39.489Z,33.83
2019-02-20T02:17:13.595Z,33.33
2019-02-20T02:19:43.462Z,38.35
2019-02-20T02:22:13.314Z,40.95
2019-02-20T02:24:43.200Z,39.67
2019-02-20T02:27:13.923Z,34.60
2019-02-20T02:29:43.817Z,39.70
2019-02-20T02:32:13.669Z,36.17
2019-02-20T02:34:43.547Z,40.33
2019-02-20T02:37:15.490Z,40.80
2019-02-20T02:39:45.397Z,39.85
2019-02-20T02:42:15.223Z,45.38
2019-02-20T02:44:45.135Z,40.52
2019-02-20T02:47:15.970Z,35.05
2019-02-20T02:49:45.850Z,36.45
2019-02-20T02:52:15.717Z,39.83
2019-02-20T02:54:45.555Z,40.67
2019-02-20T02:57:15.558Z,39.75
2019-02-20T02:59:45.407Z,42.95
2019-02-20T03:02:15.316Z,44.38
2019-02-20T03:04:46.003Z,39.30
2019-02-20T03:07:15.891Z,40.73
2019-02-20T03:09:45.786Z,37.67
2019-02-20T03:12:16.627Z,40.95
2019-02-20T03:14:46.549Z,34.48
2019-02-20T03:17:16.435Z,33.50
2019-02-20T03:19:46.369Z,37.70
2019-02-20T03:22:16.193Z,32.90
2019-02-20T03:24:46.090Z,33.90
2019-02-20T03:27:16.924Z,37.78
2019-02-20T03:29:46.778Z,33.38
2019-02-20T03:32:16.612Z,36.35
2019-02-20T03:34:46.498Z,38.40
2019-02-20T03:37:16.383Z,42.83
2019-02-20T03:39:46.329Z,33.90
2019-02-20T03:42:16.192Z,37.90
2019-02-20T03:44:46.083Z,39.83
2019-02-20T03:47:15.987Z,45.57
2019-02-20T03:49:45.867Z,36.42
2019-02-20T03:52:15.789Z,41.63
2019-02-20T03:54:45.622Z,42.20
2019-02-20T03:57:15.551Z,36.60
2019-02-20T03:59:45.733Z,43.78
2019-02-20T04:02:15.625Z,43.00
2019-02-20T04:04:45.512Z,44.80
2019-02-20T04:07:15.442Z,48.42
2019-02-20T04:09:45.329Z,54.58
2019-02-20T04:12:15.233Z,45.55
2019-02-20T04:14:45.090Z,47.05
2019-02-20T04:17:15.054Z,43.80
2019-02-20T04:19:44.910Z,49.30
2019-02-20T04:22:14.731Z,43.73
2019-02-20T04:24:44.621Z,44.98
2019-02-20T04:27:14.397Z,45.90
2019-02-20T04:29:44.266Z,52.62
2019-02-20T04:32:14.139Z,56.00
2019-02-20T04:34:43.986Z,49.90
2019-02-20T04:37:13.992Z,54.30
2019-02-20T04:39:44.842Z,56.50
2019-02-20T04:42:14.676Z,55.67
2019-02-20T04:44:44.522Z,48.00
2019-02-20T04:47:14.430Z,46.48
2019-02-20T04:49:44.361Z,48.83
2019-02-20T04:52:14.257Z,53.02
2019-02-20T04:54:45.120Z,55.10
2019-02-20T04:57:14.951Z,59.77
2019-02-20T04:59:44.786Z,64.37
2019-02-20T05:02:14.673Z,60.58
2019-02-20T05:04:44.533Z,55.23
2019-02-20T05:07:14.427Z,60.12
2019-02-20T05:09:44.266Z,58.00
2019-02-20T05:12:15.634Z,53.70
2019-02-20T05:14:46.453Z,50.38
2019-02-20T05:17:16.503Z,49.85
2019-02-20T05:19:46.339Z,53.80
2019-02-20T05:22:16.331Z,59.13
2019-02-20T05:24:46.154Z,70.95
2019-02-20T05:27:16.105Z,68.40
2019-02-20T05:29:45.930Z,61.40
2019-02-20T05:32:15.821Z,57.67
2019-02-20T05:34:45.643Z,49.67
2019-02-20T05:37:15.614Z,54.58
2019-02-20T05:39:45.398Z,51.28
2019-02-20T05:42:15.295Z,53.13
2019-02-20T05:44:45.168Z,51.27
2019-02-20T05:47:15.154Z,54.43
2019-02-20T05:49:44.989Z,57.95
2019-02-20T05:52:14.834Z,61.37
2019-02-20T05:54:44.767Z,63.27
2019-02-20T05:57:15.631Z,54.60
2019-02-20T05:59:45.445Z,51.90
2019-02-20T06:02:15.286Z,62.15
2019-02-20T06:04:46.089Z,72.40
2019-02-20T06:07:15.960Z,60.30
2019-02-20T06:09:45.788Z,56.73
2019-02-20T06:12:15.625Z,57.17
2019-02-20T06:14:45.534Z,56.63
2019-02-20T06:17:15.415Z,61.48
2019-02-20T06:19:45.317Z,62.75
2019-02-20T06:22:18.102Z,63.48
2019-02-20T06:24:48.016Z,61.80
2019-02-20T06:27:17.823Z,68.95
2019-02-20T06:29:47.683Z,57.83
2019-02-20T06:32:17.462Z,58.58
2019-02-20T06:34:47.261Z,56.57
2019-02-20T06:37:17.116Z,55.10
2019-02-20T06:39:46.993Z,53.15
2019-02-20T06:42:16.811Z,55.67
2019-02-20T06:44:46.805Z,53.45
2019-02-20T06:47:16.716Z,49.88
2019-02-20T06:49:46.613Z,54.33
2019-02-20T06:52:16.496Z,56.08
2019-02-20T06:54:53.591Z,54.98
2019-02-20T06:57:18.216Z,55.45
2019-02-20T06:59:48.087Z,58.45
2019-02-20T07:02:17.917Z,56.77
2019-02-20T07:05:23.905Z,58.60
2019-02-20T07:08:25.750Z,61.37
2019-02-20T07:11:18.619Z,56.98
2019-02-20T07:14:00.306Z,58.85
2019-02-20T07:17:08.117Z,57.05
2019-02-20T07:19:49.538Z,66.72
2019-02-20T07:22:40.233Z,53.75
2019-02-20T07:25:19.363Z,59.50
2019-02-20T07:27:52.157Z,59.13
2019-02-20T07:30:22.014Z,57.90
2019-02-20T07:32:51.892Z,62.80
2019-02-20T07:35:21.787Z,57.88
2019-02-20T07:37:51.671Z,56.95
2019-02-20T07:40:24.530Z,55.10
2019-02-20T07:42:54.517Z,56.30
2019-02-20T07:45:24.362Z,56.53
2019-02-20T07:47:56.320Z,52.98
2019-02-20T07:50:26.147Z,56.13
2019-02-20T07:52:56.101Z,51.60
2019-02-20T07:55:25.987Z,47.80
2019-02-20T07:57:55.905Z,47.48
2019-02-20T08:00:25.795Z,43.87
2019-02-20T08:02:55.605Z,40.13
2019-02-20T08:05:25.463Z,46.30
2019-02-20T08:07:55.420Z,46.63
2019-02-20T08:10:25.319Z,45.37
2019-02-20T08:12:55.153Z,45.65
2019-02-20T08:15:24.978Z,46.55
2019-02-20T08:17:54.822Z,45.43
2019-02-20T08:20:27.471Z,47.17
2019-02-20T08:22:57.302Z,43.48
2019-02-20T08:25:30.303Z,42.55
2019-02-20T08:28:00.132Z,46.23
2019-02-20T08:30:30.021Z,41.35
2019-02-20T08:32:59.841Z,40.67
2019-02-20T08:35:29.672Z,38.65
2019-02-20T08:37:59.491Z,41.83
2019-02-20T08:40:29.378Z,39.40
2019-02-20T08:42:59.256Z,44.85
2019-02-20T08:45:29.111Z,38.28
2019-02-20T08:47:59.141Z,42.25
2019-02-20T08:50:28.962Z,36.73
2019-02-20T08:52:58.775Z,39.45
2019-02-20T08:55:32.072Z,35.65
2019-02-20T08:58:00.230Z,37.80
2019-02-20T09:00:30.117Z,36.30
2019-02-20T09:03:00.027Z,44.67
2019-02-20T09:05:29.872Z,37.17
2019-02-20T09:07:59.810Z,37.98
2019-02-20T09:10:29.630Z,41.65
2019-02-20T09:12:59.457Z,37.28
2019-02-20T09:15:31.106Z,36.05
2019-02-20T09:18:00.976Z,36.30
2019-02-20T09:20:30.799Z,34.40
2019-02-20T09:23:00.698Z,38.45
2019-02-20T09:25:30.601Z,38.07
2019-02-20T09:28:00.483Z,35.00
2019-02-20T09:30:30.506Z,30.50
2019-02-20T09:33:00.608Z,29.85
2019-02-20T09:35:31.579Z,31.97
2019-02-20T09:38:01.420Z,27.00
2019-02-20T09:40:31.268Z,29.50
2019-02-20T09:43:01.061Z,28.17
2019-02-20T09:45:30.889Z,31.05
2019-02-20T09:48:04.145Z,30.23
2019-02-20T09:50:33.897Z,33.33
2019-02-20T09:53:03.705Z,27.27
2019-02-20T09:55:33.525Z,27.32
2019-02-20T09:58:03.542Z,28.57
2019-02-20T10:00:33.457Z,28.27
2019-02-20T10:03:03.306Z,33.48
2019-02-20T10:05:33.154Z,32.35
2019-02-20T10:08:04.482Z,27.55
2019-02-20T10:10:34.580Z,30.00
2019-02-20T10:13:04.400Z,31.05
2019-02-20T10:15:34.298Z,27.73
2019-02-20T10:18:04.238Z,25.97
2019-02-20T10:20:34.073Z,20.25
2019-02-20T10:23:03.871Z,23.60
2019-02-20T10:25:33.690Z,25.97
2019-02-20T10:28:03.662Z,21.23
2019-02-20T10:30:33.501Z,21.30
2019-02-20T10:33:03.417Z,24.43
2019-02-20T10:35:33.624Z,26.33
2019-02-20T10:38:03.569Z,25.27
2019-02-20T10:40:33.354Z,23.50
2019-02-20T10:43:03.698Z,22.30
2019-02-20T10:45:33.710Z,22.42
2019-02-20T10:48:03.757Z,20.45
2019-02-20T10:50:34.688Z,25.80
2019-02-20T10:53:04.570Z,19.13
2019-02-20T10:55:34.449Z,17.90
2019-02-20T10:58:04.435Z,18.45
2019-02-20T11:00:34.554Z,19.63
2019-02-20T11:03:04.393Z,18.20
2019-02-20T11:05:34.423Z,30.45
2019-02-20T11:08:04.231Z,25.93
2019-02-20T11:10:34.106Z,17.10
2019-02-20T11:13:03.957Z,17.03
2019-02-20T11:15:33.867Z,20.37
2019-02-20T11:18:03.743Z,19.23
2019-02-20T11:20:33.606Z,17.25
2019-02-20T11:23:03.541Z,20.40
2019-02-20T11:25:33.418Z,16.97
2019-02-20T11:28:04.271Z,17.80
2019-02-20T11:30:34.179Z,15.93
2019-02-20T11:33:04.144Z,18.23
2019-02-20T11:35:34.168Z,16.62
2019-02-20T11:38:04.436Z,21.15
2019-02-20T11:40:34.238Z,23.18
2019-02-20T11:43:04.157Z,18.32
2019-02-20T11:45:33.993Z,16.30
2019-02-20T11:48:03.894Z,18.50
2019-02-20T11:50:33.744Z,20.60
2019-02-20T11:53:03.664Z,15.20
2019-02-20T11:55:33.490Z,18.02
2019-02-20T11:58:03.377Z,19.30
2019-02-20T12:00:33.213Z,14.83
2019-02-20T12:03:03.231Z,12.13
2019-02-20T12:05:34.639Z,15.83
2019-02-20T12:14:57.667Z,16.97
2019-02-20T12:20:50.737Z,12.88
2019-02-20T12:23:20.505Z,16.57
2019-02-20T12:25:50.497Z,13.75
2019-02-20T12:32:07.862Z,10.45
2019-02-20T12:34:37.744Z,10.70
2019-02-20T12:40:19.138Z,7.75
2019-02-20T12:42:49.034Z,8.65
2019-02-20T12:48:43.283Z,10.78
2019-02-20T12:51:14.241Z,9.85
2019-02-20T12:53:44.038Z,10.85
2019-02-20T12:56:13.933Z,11.03
2019-02-20T13:02:06.745Z,10.25
2019-02-20T13:04:36.585Z,11.30
2019-02-20T13:10:29.917Z,10.55
2019-02-20T13:12:59.757Z,10.48
2019-02-20T13:18:53.350Z,8.00
2019-02-20T13:21:23.187Z,11.05
2019-02-20T13:23:52.987Z,7.75
2019-02-20T13:26:22.668Z,6.62
2019-02-20T13:28:52.529Z,5.03
2019-02-20T13:34:57.522Z,5.12
2019-02-20T13:40:51.609Z,6.57
2019-02-20T13:43:21.416Z,5.37
2019-02-20T13:45:52.325Z,5.00
2019-02-20T13:51:45.309Z,4.78
2019-02-20T13:54:15.201Z,3.08
2019-02-20T13:59:57.008Z,4.00
2019-02-20T14:02:26.878Z,3.83
2019-02-20T14:04:56.750Z,4.95
2019-02-20T14:10:50.347Z,4.17
2019-02-20T14:13:20.316Z,2.90
2019-02-20T14:15:50.405Z,9.13
2019-02-20T14:21:44.226Z,5.05
2019-02-20T14:24:14.019Z,6.72
2019-02-20T14:30:10.663Z,7.97
2019-02-20T14:32:40.469Z,8.75
2019-02-20T14:35:11.993Z,7.83
2019-02-20T14:41:17.092Z,8.15
2019-02-20T14:43:46.882Z,9.23
2019-02-20T14:46:16.696Z,10.68
2019-02-20T14:52:10.737Z,13.15
2019-02-20T14:54:40.586Z,11.68
2019-02-20T15:00:34.420Z,11.65
2019-02-20T15:06:29.227Z,15.48
2019-02-20T15:08:59.116Z,13.18
2019-02-20T15:11:28.822Z,13.72
2019-02-20T15:13:58.689Z,15.07
2019-02-20T15:20:03.551Z,14.58
2019-02-20T15:22:33.783Z,13.78
2019-02-20T15:25:05.286Z,13.80
2019-02-20T15:30:58.197Z,13.88
2019-02-20T15:33:28.024Z,17.23
2019-02-20T15:35:57.911Z,16.35
2019-02-20T15:42:02.620Z,14.27
2019-02-20T15:44:32.640Z,18.05
2019-02-20T15:50:15.232Z,16.65
2019-02-20T15:52:45.115Z,15.30
2019-02-20T15:55:15.984Z,15.32
2019-02-20T16:01:11.491Z,18.60
2019-02-20T16:03:41.110Z,17.42
2019-02-20T16:06:10.946Z,14.90
2019-02-20T16:12:04.143Z,16.95
2019-02-20T16:14:33.929Z,18.05
2019-02-20T16:20:26.870Z,20.35
2019-02-20T16:22:56.789Z,19.95
2019-02-20T16:25:26.648Z,20.55
2019-02-20T16:31:20.856Z,19.37
2019-02-20T16:33:50.801Z,20.20
2019-02-20T16:36:21.217Z,19.07
2019-02-20T16:38:51.055Z,16.27
2019-02-20T16:41:21.996Z,20.12
2019-02-20T16:43:51.855Z,17.35
2019-02-20T16:46:21.770Z,18.32
2019-02-20T16:48:51.543Z,18.48
2019-02-20T16:51:21.761Z,19.35
2019-02-20T16:53:51.610Z,18.23
2019-02-20T16:56:21.413Z,18.87
2019-02-20T16:58:51.217Z,18.75
2019-02-20T17:01:21.207Z,19.62
2019-02-20T17:03:51.149Z,17.13
2019-02-20T17:06:21.388Z,17.48
2019-02-20T17:08:51.294Z,17.00
2019-02-20T17:11:21.211Z,15.38
2019-02-20T17:13:51.185Z,16.35
2019-02-20T17:16:22.062Z,17.92
2019-02-20T17:18:51.868Z,15.58
2019-02-20T17:21:21.784Z,17.23
2019-02-20T17:23:51.668Z,17.35
2019-02-20T17:29:46.055Z,14.90
2019-02-20T17:32:15.946Z,18.48
2019-02-20T17:34:45.701Z,15.13
2019-02-20T17:40:38.657Z,17.48
2019-02-20T17:43:08.894Z,22.02
2019-02-20T17:45:38.793Z,24.07
2019-02-20T17:51:33.348Z,30.65
2019-02-20T17:54:03.812Z,23.95
2019-02-20T17:59:59.515Z,25.15
2019-02-20T18:02:29.390Z,23.43
2019-02-20T18:04:59.239Z,22.10
2019-02-20T18:10:53.063Z,22.95
2019-02-20T18:13:22.890Z,22.70
2019-02-20T18:15:53.316Z,20.82
2019-02-20T18:21:35.660Z,27.13
2019-02-20T18:24:11.846Z,28.52
2019-02-20T18:30:08.750Z,28.32
2019-02-20T18:32:39.831Z,31.07
2019-02-20T18:35:15.419Z,24.02
2019-02-20T18:41:08.769Z,21.85
2019-02-20T18:43:38.757Z,22.90
2019-02-20T18:46:08.680Z,24.02
2019-02-20T18:52:03.009Z,21.87
2019-02-20T18:54:32.951Z,21.20
2019-02-20T19:00:26.650Z,23.52
2019-02-20T19:02:56.516Z,20.70
2019-02-20T19:05:26.317Z,17.27
2019-02-20T19:11:25.534Z,17.90
2019-02-20T19:14:23.906Z,18.60
2019-02-20T19:20:48.674Z,19.80
2019-02-20T19:23:39.440Z,24.85
2019-02-20T19:26:12.271Z,28.00
2019-02-20T19:32:18.242Z,23.38
2019-02-20T19:35:02.968Z,20.48
2019-02-20T19:41:04.484Z,20.97
2019-02-20T19:43:51.518Z,20.95
2019-02-20T19:46:48.634Z,21.77
2019-02-20T19:49:44.483Z,20.85
2019-02-20T19:52:49.027Z,22.52
2019-02-20T19:55:36.773Z,23.13
2019-02-20T19:58:09.729Z,18.35
2019-02-20T20:00:55.456Z,17.75
2019-02-20T20:03:38.426Z,20.82
2019-02-20T20:06:20.362Z,20.17
2019-02-20T20:08:59.405Z,19.20
2019-02-20T20:11:59.910Z,24.70
2019-02-20T20:14:35.052Z,22.15
2019-02-20T20:20:37.162Z,56.40
2019-02-20T20:27:11.474Z,36.93
2019-02-20T20:30:13.395Z,32.28
2019-02-20T20:36:28.796Z,23.62
2019-02-20T20:39:07.574Z,30.80
2019-02-20T20:42:06.985Z,27.82
2019-02-20T20:44:59.319Z,26.63
2019-02-20T20:51:05.872Z,27.65
2019-02-20T20:57:36.427Z,29.10
2019-02-20T21:00:26.141Z,27.87
2019-02-20T21:02:59.624Z,32.57
2019-02-20T21:05:54.057Z,34.05
2019-02-20T21:12:01.965Z,32.35
2019-02-20T21:14:47.332Z,32.42
2019-02-20T21:20:54.452Z,36.23
2019-02-20T21:23:32.882Z,36.00
2019-02-20T21:26:22.164Z,41.83
2019-02-20T21:29:00.577Z,38.98
2019-02-20T21:32:08.208Z,38.47
2019-02-20T21:34:56.199Z,38.45
2019-02-20T21:41:37.491Z,36.53
2019-02-20T21:44:14.518Z,37.60
2019-02-20T21:50:43.192Z,39.13
2019-02-20T21:53:36.056Z,37.55
2019-02-20T21:56:08.900Z,38.25
2019-02-20T22:02:35.989Z,41.58
2019-02-20T22:05:17.613Z,44.55
2019-02-20T22:11:14.114Z,42.80
2019-02-20T22:14:01.996Z,44.70
2019-02-20T22:20:19.658Z,54.67
2019-02-20T22:23:07.479Z,44.23
2019-02-20T22:25:40.241Z,46.53
2019-02-20T22:32:00.593Z,57.43
2019-02-20T22:34:50.745Z,56.10
2019-02-20T22:40:58.989Z,54.03
2019-02-20T22:47:06.923Z,62.17
2019-02-20T22:49:56.584Z,56.92
2019-02-20T22:52:58.141Z,55.43
2019-02-20T22:55:39.849Z,53.20
2019-02-20T23:01:33.625Z,58.63
2019-02-20T23:04:13.435Z,60.20
2019-02-20T23:10:16.229Z,55.75
2019-02-20T23:12:55.056Z,59.35
2019-02-20T23:15:24.879Z,61.33
2019-02-20T23:21:19.069Z,60.70
2019-02-20T23:27:26.315Z,65.57
2019-02-20T23:29:56.253Z,70.70
2019-02-20T23:32:26.150Z,67.40
2019-02-20T23:34:56.048Z,64.82
2019-02-20T23:40:49.886Z,70.55
2019-02-20T23:43:19.658Z,65.25
2019-02-20T23:45:49.482Z,66.50
2019-02-20T23:51:55.653Z,72.27
2019-02-20T23:54:25.569Z,69.42
